Time;durP1;ratioP1;P1;durP2;ratioP2;P2;SDS_P1;SDS_P2;PMS_P1;PMS_P2;Temp;Humidity;BMP_temperature;BMP_pressure;BME280_temperature;BME280_humidity;BME280_pressure;Samples;Min_cycle;Max_cycle;Signal;HPM_P1;HPM_P2
2022/04/07 00:01:27;;;;;;;4.78;2.90;;;11.30;99.90;;;;;;5093089;28;20056;-65
2022/04/07 00:03:53;;;;;;;5.80;2.50;;;11.30;99.90;;;;;;5092371;28;20024;-63
2022/04/07 00:06:19;;;;;;;2.47;2.13;;;11.20;99.90;;;;;;5092502;28;20475;-68
2022/04/07 00:08:45;;;;;;;5.47;2.65;;;11.20;99.90;;;;;;5094088;28;20097;-65
2022/04/07 00:11:12;;;;;;;4.53;2.85;;;11.20;99.90;;;;;;5074173;28;20454;-70
2022/04/07 00:13:38;;;;;;;4.25;2.83;;;11.20;99.90;;;;;;5073880;28;20035;-64
2022/04/07 00:16:06;;;;;;;4.05;3.13;;;11.20;99.90;;;;;;5072990;28;20078;-67
2022/04/07 00:18:34;;;;;;;3.30;2.53;;;11.20;99.90;;;;;;5074237;28;20033;-64
2022/04/07 00:21:02;;;;;;;4.35;2.67;;;11.10;99.90;;;;;;5072642;28;20528;-67
2022/04/07 00:23:28;;;;;;;7.55;2.95;;;11.00;99.90;;;;;;5071993;28;20121;-67
2022/04/07 00:25:54;;;;;;;4.03;2.40;;;11.00;99.90;;;;;;5073452;28;20020;-64
2022/04/07 00:28:29;;;;;;;7.35;3.15;;;11.00;99.90;;;;;;5072273;28;20032;-66
2022/04/07 00:30:55;;;;;;;6.40;3.00;;;11.00;99.90;;;;;;5072870;28;20108;-64
2022/04/07 00:33:20;;;;;;;4.85;2.60;;;11.00;99.90;;;;;;5072843;28;20105;-64
2022/04/07 00:35:46;;;;;;;3.65;2.70;;;10.90;99.90;;;;;;5072737;28;20028;-68
2022/04/07 00:38:13;;;;;;;3.53;2.40;;;11.00;99.90;;;;;;5072970;28;20029;-65
2022/04/07 00:40:40;;;;;;;4.25;2.95;;;11.00;99.90;;;;;;5092664;28;20496;-65
2022/04/07 00:43:07;;;;;;;5.95;3.17;;;11.00;99.90;;;;;;5093166;28;20020;-65
2022/04/07 00:45:33;;;;;;;6.22;3.35;;;11.00;99.90;;;;;;5073654;28;20071;-66
2022/04/07 00:48:00;;;;;;;4.25;2.55;;;11.00;99.90;;;;;;5054624;28;20040;-65
2022/04/07 00:50:26;;;;;;;4.15;2.95;;;10.90;99.90;;;;;;5054659;28;20025;-66
2022/04/07 00:52:56;;;;;;;4.78;2.90;;;11.00;99.90;;;;;;5072566;28;20029;-64
2022/04/07 00:55:26;;;;;;;8.32;3.28;;;10.80;99.90;;;;;;5072598;28;20024;-63
2022/04/07 00:57:53;;;;;;;5.75;3.40;;;10.80;99.90;;;;;;5073378;28;20079;-64
2022/04/07 01:00:19;;;;;;;4.07;3.58;;;10.80;99.90;;;;;;5056167;28;20033;-66
2022/04/07 01:02:45;;;;;;;6.03;3.63;;;10.80;99.90;;;;;;5073626;28;20043;-64
2022/04/07 01:05:11;;;;;;;3.83;2.88;;;10.80;99.90;;;;;;5074008;28;20028;-69
2022/04/07 01:07:39;;;;;;;4.53;3.10;;;10.80;99.90;;;;;;5046697;28;20172;-67
2022/04/07 01:10:07;;;;;;;4.10;3.15;;;10.80;99.90;;;;;;5036639;28;20059;-70
2022/04/07 01:12:35;;;;;;;5.57;2.63;;;10.80;99.90;;;;;;5040244;28;20021;-68
2022/04/07 01:15:04;;;;;;;4.38;2.97;;;10.80;99.90;;;;;;5040784;28;20025;-66
2022/04/07 01:17:31;;;;;;;4.22;2.83;;;10.70;99.90;;;;;;5039746;28;20044;-66
2022/04/07 01:19:58;;;;;;;3.80;3.08;;;10.70;99.90;;;;;;5039185;28;20017;-64
2022/04/07 01:22:24;;;;;;;4.47;2.67;;;10.60;99.90;;;;;;5056585;28;20025;-66
2022/04/07 01:24:50;;;;;;;4.47;3.05;;;10.70;99.90;;;;;;5055555;28;20028;-63
2022/04/07 01:27:19;;;;;;;3.00;2.38;;;10.70;99.90;;;;;;5038364;28;20033;-64
2022/04/07 01:29:45;;;;;;;3.22;2.50;;;10.70;99.90;;;;;;5036869;28;20059;-63
2022/04/07 01:32:16;;;;;;;6.00;2.72;;;10.70;99.90;;;;;;5056990;28;20473;-65
2022/04/07 01:34:42;;;;;;;4.47;2.50;;;10.60;99.90;;;;;;5076005;28;20124;-64
2022/04/07 01:37:10;;;;;;;5.50;2.65;;;10.60;99.90;;;;;;5058120;28;20025;-65
2022/04/07 01:39:38;;;;;;;4.45;2.25;;;10.60;99.90;;;;;;5075446;28;20085;-64
2022/04/07 01:42:05;;;;;;;3.58;2.60;;;10.60;99.90;;;;;;5075750;28;20028;-64
2022/04/07 01:44:34;;;;;;;3.33;2.30;;;10.60;99.90;;;;;;5075397;28;20049;-67
2022/04/07 01:47:00;;;;;;;4.72;2.42;;;10.60;99.90;;;;;;5076400;28;20347;-65
2022/04/07 01:49:26;;;;;;;5.63;2.63;;;10.60;99.90;;;;;;5076289;28;20093;-65
2022/04/07 01:51:52;;;;;;;3.55;2.45;;;10.70;99.90;;;;;;5076066;28;20024;-63
2022/04/07 01:54:18;;;;;;;5.78;3.13;;;10.60;99.90;;;;;;5076226;28;20363;-65
2022/04/07 01:56:45;;;;;;;6.53;2.35;;;10.60;99.90;;;;;;5075554;28;20033;-64
2022/04/07 01:59:10;;;;;;;3.67;2.28;;;10.50;99.90;;;;;;5075954;28;20141;-66
2022/04/07 02:01:36;;;;;;;3.28;2.33;;;10.50;99.90;;;;;;5076036;28;20035;-65
2022/04/07 02:04:04;;;;;;;3.42;2.50;;;10.50;99.90;;;;;;5076132;28;20056;-64
2022/04/07 02:06:30;;;;;;;3.25;2.15;;;10.50;99.90;;;;;;5056971;28;20359;-65
2022/04/07 02:08:56;;;;;;;3.63;2.10;;;10.50;99.90;;;;;;5075744;28;20024;-65
2022/04/07 02:11:22;;;;;;;3.63;1.75;;;10.60;99.90;;;;;;5076203;28;20037;-64
2022/04/07 02:13:49;;;;;;;3.63;1.77;;;10.50;99.90;;;;;;5075490;28;20436;-65
2022/04/07 02:16:15;;;;;;;2.42;1.88;;;10.60;99.90;;;;;;5057677;28;20020;-64
2022/04/07 02:18:41;;;;;;;4.75;2.10;;;10.60;99.90;;;;;;5074725;28;20331;-63
2022/04/07 02:21:07;;;;;;;5.25;2.20;;;10.60;99.90;;;;;;5075436;28;20117;-66
2022/04/07 02:23:40;;;;;;;2.08;1.50;;;10.60;99.90;;;;;;5074007;28;20025;-65
2022/04/07 02:26:14;;;;;;;2.00;1.63;;;10.60;99.90;;;;;;5057585;28;20430;-64
2022/04/07 02:28:40;;;;;;;3.83;1.65;;;10.60;99.90;;;;;;5074920;28;20430;-68
2022/04/07 02:31:07;;;;;;;5.80;1.70;;;10.60;99.90;;;;;;5075050;28;20036;-65
2022/04/07 02:33:34;;;;;;;2.95;1.70;;;10.60;99.90;;;;;;5074913;28;20162;-66
2022/04/07 02:36:04;;;;;;;2.42;1.92;;;10.60;99.90;;;;;;5075526;28;20032;-64
2022/04/07 02:38:30;;;;;;;3.33;1.63;;;10.50;99.90;;;;;;5057595;28;20497;-69
2022/04/07 02:40:56;;;;;;;2.58;2.20;;;10.50;99.90;;;;;;5057446;28;20032;-70
2022/04/07 02:43:22;;;;;;;4.30;2.38;;;10.40;99.90;;;;;;5075544;28;20025;-69
2022/04/07 02:45:47;;;;;;;6.70;2.90;;;10.30;99.90;;;;;;5075136;28;20035;-65
2022/04/07 02:48:13;;;;;;;3.55;2.63;;;10.20;99.90;;;;;;5074785;28;20025;-65
2022/04/07 02:50:39;;;;;;;4.05;2.63;;;10.10;99.90;;;;;;5073843;28;20086;-63
2022/04/07 02:53:05;;;;;;;4.70;2.75;;;10.20;99.90;;;;;;5074604;28;20105;-64
2022/04/07 02:55:30;;;;;;;3.83;2.58;;;10.20;99.90;;;;;;5057024;28;20029;-64
2022/04/07 02:57:59;;;;;;;3.33;2.83;;;10.20;99.90;;;;;;5056021;28;20076;-67
2022/04/07 03:00:25;;;;;;;4.40;2.40;;;10.10;99.90;;;;;;5075016;28;20378;-65
2022/04/07 03:02:51;;;;;;;4.40;2.35;;;10.20;99.90;;;;;;5056225;28;20024;-62
2022/04/07 03:05:17;;;;;;;2.47;1.85;;;10.20;99.90;;;;;;5074022;28;20135;-63
2022/04/07 03:07:42;;;;;;;3.45;2.10;;;10.20;99.90;;;;;;5055913;28;20525;-65
2022/04/07 03:10:09;;;;;;;5.10;2.10;;;10.20;99.90;;;;;;5056400;28;20029;-63
2022/04/07 03:12:35;;;;;;;3.55;2.30;;;10.10;99.90;;;;;;5055630;28;20029;-63
2022/04/07 03:15:01;;;;;;;2.50;2.30;;;10.10;99.90;;;;;;5056187;28;20526;-63
2022/04/07 03:17:27;;;;;;;2.35;1.85;;;10.00;99.90;;;;;;5056373;28;20031;-65
2022/04/07 03:19:53;;;;;;;2.20;1.90;;;10.10;99.90;;;;;;5074633;28;20036;-70
2022/04/07 03:22:19;;;;;;;2.15;1.95;;;10.10;99.90;;;;;;5056278;28;20028;-65
2022/04/07 03:24:45;;;;;;;2.03;1.77;;;10.10;99.90;;;;;;5073496;28;20024;-65
2022/04/07 03:27:11;;;;;;;3.28;2.08;;;10.10;99.90;;;;;;5056169;28;20055;-64
2022/04/07 03:29:37;;;;;;;2.63;1.65;;;10.20;99.90;;;;;;5073261;28;20068;-65
2022/04/07 03:32:04;;;;;;;2.50;1.77;;;10.10;99.90;;;;;;5073768;28;20024;-64
2022/04/07 03:34:31;;;;;;;2.85;1.98;;;10.10;99.90;;;;;;5073126;28;20059;-65
2022/04/07 03:36:56;;;;;;;2.53;1.80;;;10.10;99.90;;;;;;5055611;28;20469;-68
2022/04/07 03:39:22;;;;;;;5.57;1.98;;;10.20;99.90;;;;;;5074810;28;20107;-66
2022/04/07 03:41:47;;;;;;;1.52;1.40;;;10.20;99.90;;;;;;5073726;28;20056;-64
2022/04/07 03:44:13;;;;;;;2.55;1.30;;;10.30;99.90;;;;;;5073494;28;20506;-68
2022/04/07 03:46:40;;;;;;;3.90;1.90;;;10.30;99.90;;;;;;5073399;28;20060;-64
2022/04/07 03:49:05;;;;;;;3.90;1.45;;;10.30;99.90;;;;;;5074396;28;20029;-69
2022/04/07 03:51:31;;;;;;;2.78;1.20;;;10.30;99.90;;;;;;5074540;28;20039;-66
2022/04/07 03:53:57;;;;;;;1.55;1.33;;;10.40;99.90;;;;;;5074271;28;20032;-67
2022/04/07 03:56:22;;;;;;;1.73;1.17;;;10.30;99.90;;;;;;5074480;28;20028;-68
2022/04/07 03:58:48;;;;;;;1.30;1.20;;;10.40;99.90;;;;;;5039016;28;20036;-67
2022/04/07 04:01:14;;;;;;;4.78;1.50;;;10.30;99.90;;;;;;5074533;28;20020;-65
2022/04/07 04:03:39;;;;;;;4.88;2.30;;;10.30;99.90;;;;;;5073546;28;20052;-66
2022/04/07 04:06:05;;;;;;;2.15;1.20;;;10.30;99.90;;;;;;5074038;28;20366;-64
2022/04/07 04:08:31;;;;;;;3.25;1.13;;;10.30;99.90;;;;;;5073932;28;20024;-65
2022/04/07 04:10:57;;;;;;;1.67;1.15;;;10.30;99.90;;;;;;5074546;28;20029;-67
2022/04/07 04:13:22;;;;;;;2.13;1.27;;;10.30;99.90;;;;;;5057301;28;20032;-65
2022/04/07 04:15:48;;;;;;;2.08;1.50;;;10.30;99.90;;;;;;5012691;28;20046;-64
2022/04/07 04:18:14;;;;;;;6.45;0.93;;;10.30;99.90;;;;;;4996221;28;20515;-66
2022/04/07 04:20:40;;;;;;;1.90;1.02;;;10.30;99.90;;;;;;5012033;28;20038;-65
2022/04/07 04:23:05;;;;;;;1.38;1.00;;;10.30;99.90;;;;;;5011343;28;20121;-65
2022/04/07 04:25:31;;;;;;;2.78;1.52;;;10.30;99.90;;;;;;5011253;28;20480;-64
2022/04/07 04:27:57;;;;;;;3.42;1.00;;;10.40;99.90;;;;;;5010734;28;20072;-64
2022/04/07 04:30:23;;;;;;;2.90;1.85;;;10.30;99.90;;;;;;4994576;28;20038;-63
2022/04/07 04:32:49;;;;;;;1.77;1.02;;;10.30;99.90;;;;;;5011175;28;20086;-69
2022/04/07 04:35:14;;;;;;;3.15;1.10;;;10.40;99.90;;;;;;5011149;28;20045;-64
2022/04/07 04:37:43;;;;;;;1.23;1.10;;;10.40;99.90;;;;;;4994042;28;20034;-66
2022/04/07 04:40:09;;;;;;;2.70;1.10;;;10.50;99.90;;;;;;4994854;28;20057;-65
2022/04/07 04:42:40;;;;;;;1.10;0.88;;;10.50;99.90;;;;;;5012094;28;20042;-64
2022/04/07 04:45:07;;;;;;;1.63;0.90;;;10.50;99.90;;;;;;5024740;28;20453;-65
2022/04/07 04:47:33;;;;;;;2.05;0.95;;;10.50;99.90;;;;;;5085676;28;20036;-66
2022/04/07 04:49:59;;;;;;;1.88;0.93;;;10.50;99.90;;;;;;5091974;28;20036;-70
2022/04/07 04:52:24;;;;;;;3.85;0.98;;;10.50;99.90;;;;;;5093888;28;20037;-64
2022/04/07 04:54:50;;;;;;;1.85;0.90;;;10.50;99.90;;;;;;5094131;28;20025;-65
2022/04/07 04:57:15;;;;;;;3.72;1.08;;;10.50;99.90;;;;;;5093521;28;20099;-68
2022/04/07 04:59:41;;;;;;;2.03;1.42;;;10.50;99.90;;;;;;5091339;28;20102;-67
2022/04/07 05:02:07;;;;;;;1.92;0.82;;;10.50;99.90;;;;;;5091975;28;20024;-64
2022/04/07 05:04:32;;;;;;;1.77;1.10;;;10.50;99.90;;;;;;5092008;28;20035;-65
2022/04/07 05:06:58;;;;;;;1.70;0.98;;;10.30;99.90;;;;;;5093099;28;20071;-67
2022/04/07 05:09:24;;;;;;;4.05;1.38;;;10.30;99.90;;;;;;5091686;28;20035;-65
2022/04/07 05:11:50;;;;;;;2.10;0.98;;;10.20;99.90;;;;;;5092546;28;20460;-64
2022/04/07 05:14:15;;;;;;;2.63;1.13;;;10.20;99.90;;;;;;5091533;28;20041;-65
2022/04/07 05:16:41;;;;;;;1.63;1.48;;;10.10;99.90;;;;;;5091300;28;20059;-66
2022/04/07 05:19:06;;;;;;;2.58;1.40;;;10.10;99.90;;;;;;5091489;28;20024;-67
2022/04/07 05:21:33;;;;;;;3.38;1.92;;;10.10;99.90;;;;;;5091434;28;20055;-65
2022/04/07 05:23:58;;;;;;;3.00;1.63;;;10.10;99.90;;;;;;5090981;28;20024;-66
2022/04/07 05:26:24;;;;;;;2.33;1.50;;;10.10;99.90;;;;;;5091298;28;20031;-65
2022/04/07 05:28:49;;;;;;;3.33;1.33;;;10.20;99.90;;;;;;5093000;28;20038;-66
2022/04/07 05:31:15;;;;;;;1.27;1.15;;;10.20;99.90;;;;;;5078517;28;20043;-64
2022/04/07 05:33:41;;;;;;;1.85;1.02;;;10.20;99.90;;;;;;5059006;28;20083;-72
2022/04/07 05:36:10;;;;;;;3.13;1.20;;;10.30;99.90;;;;;;5072988;28;20471;-66
2022/04/07 05:38:35;;;;;;;1.83;1.35;;;10.40;99.90;;;;;;5071963;28;20384;-64
2022/04/07 05:41:01;;;;;;;0.82;0.80;;;10.40;99.90;;;;;;5071956;28;20463;-66
2022/04/07 05:43:26;;;;;;;1.90;1.10;;;10.40;99.90;;;;;;5072505;28;20035;-67
2022/04/07 05:45:52;;;;;;;1.65;0.80;;;10.50;99.90;;;;;;5070809;28;20496;-66
2022/04/07 05:48:18;;;;;;;1.08;0.90;;;10.50;99.90;;;;;;5072596;28;20028;-69
2022/04/07 05:50:44;;;;;;;1.50;0.88;;;10.50;99.90;;;;;;5072163;28;20025;-64
2022/04/07 05:53:10;;;;;;;0.88;0.40;;;10.50;99.90;;;;;;5054406;28;20484;-65
2022/04/07 05:55:37;;;;;;;4.57;0.70;;;10.50;99.90;;;;;;5053558;28;20029;-67
2022/04/07 05:58:04;;;;;;;2.05;0.73;;;10.60;99.90;;;;;;5054100;28;20028;-66
2022/04/07 06:00:30;;;;;;;1.83;0.98;;;10.60;99.90;;;;;;5064154;28;20112;-66
2022/04/07 06:02:56;;;;;;;0.50;0.40;;;10.60;99.90;;;;;;5066371;28;20063;-65
2022/04/07 06:05:21;;;;;;;1.25;0.40;;;10.70;99.90;;;;;;5075567;28;20082;-67
2022/04/07 06:07:49;;;;;;;1.02;0.32;;;10.70;99.90;;;;;;5075488;28;20044;-67
2022/04/07 06:10:16;;;;;;;0.95;0.32;;;10.60;99.90;;;;;;5075818;28;20033;-65
2022/04/07 06:12:43;;;;;;;0.63;0.30;;;10.60;99.90;;;;;;5075352;28;20033;-65
2022/04/07 06:15:13;;;;;;;0.30;0.20;;;10.70;99.90;;;;;;5057627;28;20032;-67
2022/04/07 06:17:41;;;;;;;1.08;0.38;;;10.60;99.90;;;;;;5057408;28;20491;-64
2022/04/07 06:20:10;;;;;;;1.35;0.20;;;10.60;99.90;;;;;;5056684;28;20032;-67
2022/04/07 06:22:36;;;;;;;0.40;0.40;;;10.50;99.90;;;;;;5075858;28;20037;-64
2022/04/07 06:25:03;;;;;;;0.63;0.30;;;10.50;99.90;;;;;;5075269;28;20034;-64
2022/04/07 06:27:39;;;;;;;0.80;0.55;;;10.50;99.90;;;;;;5075517;28;20031;-65
2022/04/07 06:30:12;;;;;;;0.73;0.32;;;10.50;99.90;;;;;;5074646;28;20040;-66
2022/04/07 06:32:39;;;;;;;0.70;0.30;;;10.50;99.90;;;;;;5057519;28;20036;-66
2022/04/07 06:35:12;;;;;;;2.35;0.30;;;10.40;99.90;;;;;;5074556;28;20185;-65
2022/04/07 06:37:51;;;;;;;1.20;0.43;;;10.50;99.90;;;;;;5075298;28;20115;-65
2022/04/07 06:40:28;;;;;;;1.42;0.40;;;10.50;99.90;;;;;;5056816;28;20489;-66
2022/04/07 06:42:56;;;;;;;4.15;0.88;;;10.50;99.90;;;;;;5074688;28;20031;-65
2022/04/07 06:45:22;;;;;;;1.60;0.45;;;10.50;99.90;;;;;;5074770;28;20049;-68
2022/04/07 06:47:49;;;;;;;3.22;0.30;;;10.50;99.90;;;;;;5056383;28;20056;-72
2022/04/07 06:50:17;;;;;;;2.58;0.50;;;10.50;99.90;;;;;;5053160;28;20068;-65
2022/04/07 06:52:44;;;;;;;1.77;0.57;;;10.60;99.90;;;;;;5074816;28;20052;-66
2022/04/07 06:55:11;;;;;;;2.85;0.40;;;10.60;99.90;;;;;;5074608;28;20063;-64
2022/04/07 06:57:54;;;;;;;2.95;0.68;;;10.60;99.90;;;;;;5074729;28;20053;-63
2022/04/07 07:00:29;;;;;;;1.05;0.50;;;10.60;99.90;;;;;;5074166;28;20037;-66
2022/04/07 07:02:56;;;;;;;1.15;0.47;;;10.60;99.90;;;;;;5076275;28;20035;-67
2022/04/07 07:05:23;;;;;;;1.67;1.23;;;10.50;99.90;;;;;;5077193;28;20453;-66
2022/04/07 07:07:49;;;;;;;1.02;0.30;;;10.50;99.90;;;;;;5044898;28;20074;-64
2022/04/07 07:10:26;;;;;;;1.65;0.50;;;10.70;99.90;;;;;;5076327;28;20031;-66
2022/04/07 07:12:52;;;;;;;1.75;0.60;;;10.50;99.90;;;;;;5056080;28;20028;-64
2022/04/07 07:15:21;;;;;;;1.88;0.20;;;10.30;99.90;;;;;;5074872;28;20024;-66
2022/04/07 07:17:47;;;;;;;1.17;0.40;;;10.40;99.90;;;;;;5074407;28;20028;-67
2022/04/07 07:20:13;;;;;;;2.22;0.38;;;10.30;99.90;;;;;;5074924;28;20025;-68
2022/04/07 07:22:42;;;;;;;1.52;0.30;;;10.30;99.90;;;;;;5071374;28;20024;-66
2022/04/07 07:25:09;;;;;;;1.23;0.20;;;10.30;99.90;;;;;;5055647;28;20462;-65
2022/04/07 07:27:40;;;;;;;0.73;0.15;;;10.30;99.90;;;;;;5053068;28;20021;-66
2022/04/07 07:30:09;;;;;;;2.05;0.20;;;10.30;99.90;;;;;;5060490;28;20029;-65
2022/04/07 07:32:39;;;;;;;9.23;0.55;;;10.40;99.90;;;;;;5047387;28;20029;-70
2022/04/07 07:35:06;;;;;;;1.10;0.60;;;11.20;99.90;;;;;;5058769;28;20029;-70
2022/04/07 07:37:31;;;;;;;0.52;0.30;;;11.30;99.90;;;;;;5059460;28;20033;-73
2022/04/07 07:40:02;;;;;;;2.47;0.50;;;11.50;99.90;;;;;;5078772;28;20027;-70
2022/04/07 07:42:28;;;;;;;4.53;0.70;;;11.50;99.90;;;;;;5077532;28;20054;-69
2022/04/07 07:44:53;;;;;;;0.45;0.25;;;11.50;99.90;;;;;;5084930;28;20044;-71
2022/04/07 07:47:19;;;;;;;6.72;0.90;;;11.60;99.90;;;;;;5096920;28;20024;-70
2022/04/07 07:49:45;;;;;;;2.78;0.20;;;12.00;99.90;;;;;;5095814;28;20032;-69
2022/04/07 07:52:10;;;;;;;1.23;0.40;;;11.60;99.90;;;;;;5086638;28;20025;-70
2022/04/07 07:54:36;;;;;;;0.75;0.52;;;11.10;99.90;;;;;;5087498;28;20032;-65
2022/04/07 07:57:02;;;;;;;0.88;0.30;;;10.80;99.90;;;;;;5085610;28;20036;-67
2022/04/07 07:59:27;;;;;;;1.48;0.30;;;10.70;99.90;;;;;;5073954;28;20382;-64
2022/04/07 08:01:53;;;;;;;4.05;1.08;;;10.60;99.90;;;;;;5071791;28;20044;-65
2022/04/07 08:04:19;;;;;;;3.30;0.35;;;10.50;99.90;;;;;;5072484;28;20035;-65
2022/04/07 08:06:44;;;;;;;1.08;0.30;;;10.40;99.90;;;;;;5076602;28;20082;-66
2022/04/07 08:09:13;;;;;;;7.40;0.82;;;10.30;99.90;;;;;;5093102;28;20463;-66
2022/04/07 08:11:41;;;;;;;1.02;0.30;;;10.30;99.90;;;;;;5093596;28;20488;-66
2022/04/07 08:14:07;;;;;;;0.35;0.13;;;10.30;99.90;;;;;;5092333;28;20032;-63
2022/04/07 08:16:33;;;;;;;0.70;0.38;;;10.30;99.90;;;;;;5093370;28;20488;-65
2022/04/07 08:18:59;;;;;;;3.00;0.30;;;10.30;99.90;;;;;;5093095;28;20031;-65
2022/04/07 08:21:24;;;;;;;1.35;0.30;;;10.40;99.90;;;;;;5091786;28;20463;-67
2022/04/07 08:23:51;;;;;;;0.68;0.20;;;10.40;99.90;;;;;;5093570;28;20020;-65
2022/04/07 08:26:16;;;;;;;1.35;0.30;;;10.40;99.90;;;;;;5092659;28;20020;-65
2022/04/07 08:28:42;;;;;;;3.50;0.10;;;10.50;99.90;;;;;;5093344;28;20102;-65
2022/04/07 08:31:08;;;;;;;1.38;0.47;;;10.50;99.90;;;;;;5090837;28;20041;-64
2022/04/07 08:33:34;;;;;;;2.63;0.38;;;10.40;99.90;;;;;;5091751;28;20062;-65
2022/04/07 08:35:59;;;;;;;1.13;0.38;;;10.50;99.90;;;;;;5092526;28;20032;-68
2022/04/07 08:38:25;;;;;;;5.57;0.60;;;10.50;99.90;;;;;;5091753;28;20062;-66
2022/04/07 08:40:52;;;;;;;0.30;0.20;;;10.50;99.90;;;;;;5091187;28;20446;-65
2022/04/07 08:43:18;;;;;;;1.27;0.52;;;10.50;99.90;;;;;;5090259;28;20377;-69
2022/04/07 08:45:44;;;;;;;5.85;0.50;;;10.50;99.90;;;;;;5072376;28;20043;-66
2022/04/07 08:48:12;;;;;;;0.88;0.35;;;10.50;99.90;;;;;;5071033;28;20127;-69
2022/04/07 08:50:42;;;;;;;0.47;0.30;;;10.50;99.90;;;;;;5072589;28;20473;-67
2022/04/07 08:53:10;;;;;;;2.47;1.13;;;10.50;99.90;;;;;;5071276;28;20508;-64
2022/04/07 08:55:36;;;;;;;2.53;0.68;;;10.50;99.90;;;;;;5053723;28;20029;-63
2022/04/07 08:58:02;;;;;;;0.70;0.30;;;10.50;99.90;;;;;;5062182;28;20035;-65
2022/04/07 09:00:28;;;;;;;1.17;0.40;;;10.50;99.90;;;;;;5042142;28;20025;-67
2022/04/07 09:02:54;;;;;;;1.67;0.30;;;10.50;99.90;;;;;;5053437;28;20025;-70
2022/04/07 09:05:25;;;;;;;4.22;0.57;;;10.60;99.90;;;;;;5069046;28;20028;-64
2022/04/07 09:07:52;;;;;;;2.63;0.30;;;10.60;99.90;;;;;;5054503;28;20076;-69
2022/04/07 09:10:20;;;;;;;1.42;0.30;;;10.70;99.90;;;;;;5053696;28;20040;-65
2022/04/07 09:12:45;;;;;;;2.20;0.40;;;10.70;99.90;;;;;;5054360;28;20020;-67
2022/04/07 09:15:15;;;;;;;1.00;0.20;;;10.70;99.90;;;;;;5035798;28;20546;-68
2022/04/07 09:17:55;;;;;;;0.95;0.30;;;10.70;99.90;;;;;;5034604;28;20025;-64
2022/04/07 09:20:22;;;;;;;0.75;0.30;;;10.80;99.90;;;;;;5034579;28;20434;-65
2022/04/07 09:22:58;;;;;;;1.20;0.35;;;10.80;99.90;;;;;;5052309;28;20013;-66
2022/04/07 09:25:25;;;;;;;0.73;0.17;;;10.80;99.90;;;;;;5035185;28;20463;-69
2022/04/07 09:27:57;;;;;;;0.60;0.20;;;10.90;99.90;;;;;;5035455;28;20035;-64
2022/04/07 09:30:23;;;;;;;2.33;0.50;;;10.90;99.90;;;;;;5053080;28;20417;-65
2022/04/07 09:32:49;;;;;;;2.05;0.20;;;10.90;99.90;;;;;;5036758;28;20032;-67
2022/04/07 09:35:15;;;;;;;0.28;0.15;;;10.90;99.90;;;;;;5038534;28;20224;-69
2022/04/07 09:37:43;;;;;;;0.68;0.30;;;11.00;99.90;;;;;;5057259;28;20032;-67
2022/04/07 09:40:16;;;;;;;8.30;0.43;;;11.10;99.90;;;;;;5038688;28;20033;-67
2022/04/07 09:42:42;;;;;;;0.95;0.30;;;11.10;99.90;;;;;;5056074;28;20489;-74
2022/04/07 09:45:12;;;;;;;1.60;0.55;;;11.10;99.90;;;;;;5065549;28;20076;-65
2022/04/07 09:47:49;;;;;;;0.85;0.20;;;11.20;99.90;;;;;;5076188;28;20052;-65
2022/04/07 09:50:23;;;;;;;1.85;0.65;;;11.20;99.90;;;;;;5076467;28;20029;-66
2022/04/07 09:53:04;;;;;;;0.43;0.10;;;11.20;99.90;;;;;;5076191;28;20103;-63
2022/04/07 09:55:43;;;;;;;0.50;0.15;;;11.20;99.90;;;;;;5076014;28;20020;-66
2022/04/07 09:58:11;;;;;;;0.20;0.10;;;11.30;99.90;;;;;;5074101;28;20032;-67
2022/04/07 10:00:37;;;;;;;1.15;0.40;;;11.30;99.90;;;;;;5075926;28;20025;-68
2022/04/07 10:03:04;;;;;;;3.10;0.20;;;11.20;99.90;;;;;;5074919;28;20017;-67
2022/04/07 10:05:30;;;;;;;1.40;0.22;;;11.30;99.90;;;;;;5073767;28;20089;-65
2022/04/07 10:08:01;;;;;;;6.72;0.95;;;11.30;99.90;;;;;;5075339;28;20035;-65
2022/04/07 10:10:27;;;;;;;0.82;0.28;;;11.30;99.90;;;;;;5074451;28;20032;-64
2022/04/07 10:12:53;;;;;;;1.77;0.30;;;11.30;99.90;;;;;;5074193;28;20021;-64
2022/04/07 10:15:21;;;;;;;3.40;0.30;;;11.20;99.90;;;;;;5091102;28;20476;-66
2022/04/07 10:17:47;;;;;;;4.50;0.40;;;11.20;99.90;;;;;;5093770;28;20451;-65
2022/04/07 10:20:20;;;;;;;0.88;0.40;;;11.20;99.90;;;;;;5093798;28;20076;-64
2022/04/07 10:23:16;;;;;;;1.60;0.40;;;11.20;99.90;;;;;;5096012;28;20028;-64
2022/04/07 10:25:49;;;;;;;1.75;0.30;;;11.20;99.90;;;;;;5095630;28;20082;-65
2022/04/07 10:28:16;;;;;;;10.35;0.88;;;11.20;99.90;;;;;;5093673;28;20032;-64
2022/04/07 10:30:56;;;;;;;0.75;0.20;;;11.20;99.90;;;;;;5091283;28;20349;-66
2022/04/07 10:33:49;;;;;;;1.88;0.30;;;11.30;99.90;;;;;;5086567;28;20128;-66
2022/04/07 10:36:20;;;;;;;1.25;0.30;;;11.30;99.90;;;;;;5073873;28;20116;-65
2022/04/07 10:38:51;;;;;;;1.95;0.20;;;11.30;99.90;;;;;;5082777;28;20039;-65
2022/04/07 10:41:41;;;;;;;2.70;0.50;;;11.30;99.90;;;;;;5083549;28;20458;-67
2022/04/07 10:44:17;;;;;;;1.48;0.65;;;11.40;99.90;;;;;;5077282;28;20193;-66
2022/04/07 10:46:43;;;;;;;2.78;0.22;;;11.40;99.90;;;;;;5077171;28;20108;-70
2022/04/07 10:49:11;;;;;;;2.22;0.40;;;11.40;99.90;;;;;;5075293;28;20459;-66
2022/04/07 10:51:54;;;;;;;0.88;0.30;;;11.40;99.90;;;;;;5072645;28;20029;-67
2022/04/07 10:54:21;;;;;;;1.20;0.25;;;11.40;99.90;;;;;;5034118;28;20090;-65
2022/04/07 10:57:01;;;;;;;1.20;0.38;;;11.40;99.90;;;;;;5050569;28;20028;-66
2022/04/07 10:59:29;;;;;;;2.45;0.70;;;11.40;99.90;;;;;;5074794;28;20044;-64
2022/04/07 11:01:59;;;;;;;0.55;0.28;;;11.40;99.90;;;;;;5057968;28;20036;-67
2022/04/07 11:04:24;;;;;;;1.13;1.00;;;11.40;99.90;;;;;;5057057;28;20039;-66
2022/04/07 11:07:05;;;;;;;1.15;0.40;;;11.40;99.90;;;;;;5075814;28;20024;-65
2022/04/07 11:09:46;;;;;;;1.00;0.20;;;11.40;99.90;;;;;;5073093;28;20465;-68
2022/04/07 11:12:33;;;;;;;0.98;0.28;;;11.50;99.90;;;;;;5048040;28;20037;-66
2022/04/07 11:15:02;;;;;;;2.40;0.52;;;11.60;99.90;;;;;;5071971;28;20032;-66
2022/04/07 11:17:47;;;;;;;2.55;0.20;;;11.50;99.90;;;;;;5074755;28;20024;-69
2022/04/07 11:20:21;;;;;;;2.05;0.30;;;11.60;99.90;;;;;;5055833;28;20402;-64
2022/04/07 11:23:08;;;;;;;0.77;0.30;;;11.60;99.90;;;;;;5056264;28;20032;-70
2022/04/07 11:25:39;;;;;;;1.00;0.10;;;11.70;99.90;;;;;;5072073;28;20032;-66
2022/04/07 11:28:17;;;;;;;2.35;0.30;;;11.70;99.90;;;;;;5072848;28;20024;-66
2022/04/07 11:30:47;;;;;;;1.40;0.35;;;11.90;99.90;;;;;;5074127;28;20032;-65
2022/04/07 11:33:27;;;;;;;2.08;0.22;;;12.00;99.90;;;;;;5055474;28;20025;-66
2022/04/07 11:36:06;;;;;;;1.20;0.65;;;12.00;99.90;;;;;;5074159;28;20389;-69
2022/04/07 11:38:36;;;;;;;5.57;0.10;;;12.20;99.90;;;;;;5073933;28;20370;-64
2022/04/07 11:41:07;;;;;;;2.63;0.30;;;12.20;99.90;;;;;;5073390;28;20036;-66
2022/04/07 11:43:34;;;;;;;1.63;0.30;;;12.20;99.90;;;;;;5050842;28;20037;-64
2022/04/07 11:46:02;;;;;;;0.73;0.15;;;12.20;99.90;;;;;;5074181;28;20477;-64
2022/04/07 11:48:32;;;;;;;0.65;0.17;;;12.30;99.90;;;;;;5054764;28;20039;-68
2022/04/07 11:51:06;;;;;;;2.15;0.20;;;12.30;99.90;;;;;;5069888;28;20106;-64
2022/04/07 11:53:32;;;;;;;2.35;0.10;;;12.40;99.90;;;;;;5073973;28;20029;-64
2022/04/07 11:56:12;;;;;;;0.28;0.13;;;12.50;99.90;;;;;;5048818;28;20059;-66
2022/04/07 11:58:37;;;;;;;0.95;0.10;;;12.50;99.90;;;;;;5047799;28;20095;-65
2022/04/07 12:01:11;;;;;;;0.20;0.10;;;12.60;99.90;;;;;;5070086;28;20021;-64
2022/04/07 12:03:38;;;;;;;0.60;0.17;;;12.60;99.90;;;;;;5070345;28;20473;-65
2022/04/07 12:06:05;;;;;;;2.50;0.20;;;12.60;99.90;;;;;;5072607;28;20032;-64
2022/04/07 12:08:31;;;;;;;1.75;0.10;;;12.70;99.90;;;;;;5054642;28;20093;-65
2022/04/07 12:10:57;;;;;;;2.17;0.20;;;12.70;99.90;;;;;;5072805;28;20040;-69
2022/04/07 12:13:23;;;;;;;2.65;0.22;;;12.80;99.90;;;;;;5054436;28;20016;-66
2022/04/07 12:15:49;;;;;;;1.08;0.10;;;12.90;99.90;;;;;;5054986;28;20399;-69
2022/04/07 12:18:25;;;;;;;0.10;0.00;;;13.00;99.90;;;;;;5054294;28;20017;-65
2022/04/07 12:21:02;;;;;;;0.32;0.00;;;13.10;99.90;;;;;;5054875;28;20046;-66
2022/04/07 12:23:32;;;;;;;2.03;0.10;;;13.20;99.90;;;;;;5072706;28;20017;-66
2022/04/07 12:26:00;;;;;;;0.75;0.10;;;13.40;99.90;;;;;;5070986;28;20028;-66
2022/04/07 12:28:39;;;;;;;1.98;0.10;;;13.40;99.90;;;;;;5054016;28;20029;-71
2022/04/07 12:31:20;;;;;;;3.35;0.10;;;13.50;99.90;;;;;;5053539;28;20024;-66
2022/04/07 12:33:47;;;;;;;0.10;0.00;;;13.50;99.90;;;;;;5053899;28;20040;-67
2022/04/07 12:36:35;;;;;;;0.40;0.10;;;13.70;99.90;;;;;;5066251;28;20470;-65
2022/04/07 12:39:05;;;;;;;1.92;0.10;;;13.70;99.90;;;;;;5058717;28;20123;-65
2022/04/07 12:42:04;;;;;;;1.55;0.10;;;13.80;99.90;;;;;;5049910;28;20037;-69
2022/04/07 12:44:30;;;;;;;0.30;0.10;;;13.80;99.90;;;;;;5052417;28;20405;-67
2022/04/07 12:47:04;;;;;;;0.47;0.28;;;14.00;99.90;;;;;;5038831;28;20032;-67
2022/04/07 12:49:35;;;;;;;0.90;0.10;;;14.00;99.90;;;;;;5072420;28;20422;-68
2022/04/07 12:52:06;;;;;;;0.75;0.10;;;14.00;99.90;;;;;;5073947;28;20039;-65
2022/04/07 12:54:33;;;;;;;1.65;0.00;;;14.10;99.90;;;;;;5052100;28;20470;-63